Time,TemperatureF,DewpointF,PressureIn,WindDirection,WindDirectionDegrees,WindSpeedMPH,WindSpeedGustMPH,Humidity,HourlyPrecipIn,Conditions,Clouds,dailyrainin,SoftwareType,DateUTC
2013-05-01 00:00:00,48.0,-99.9,-100.00,North,9,2.0,-999.0,-999,-99.99,,,-99.99,,2013-05-01 07:00:00,
2013-05-01 01:00:00,46.0,-99.9,-100.00,North,9,1.0,-999.0,-999,-99.99,,,-99.99,,2013-05-01 08:00:00,
2013-05-01 02:00:00,44.0,-99.9,-100.00,NE,36,1.0,-999.0,-999,-99.99,,,-99.99,,2013-05-01 09:00:00,
2013-05-01 03:00:00,43.0,-99.9,-100.00,ENE,71,1.0,-999.0,-999,-99.99,,,-99.99,,2013-05-01 10:00:00,
2013-05-01 04:00:00,43.0,-99.9,-100.00,ESE,115,1.0,-999.0,-999,-99.99,,,-99.99,,2013-05-01 11:00:00,
2013-05-01 05:00:00,41.0,-99.9,-100.00,ESE,104,2.0,-999.0,-999,-99.99,,,-99.99,,2013-05-01 12:00:00,
2013-05-01 06:00:00,42.0,-99.9,-100.00,ENE,71,1.0,-999.0,-999,-99.99,,,-99.99,,2013-05-01 13:00:00,
2013-05-01 07:00:00,42.0,-99.9,-100.00,ENE,78,1.0,-999.0,-999,-99.99,,,-99.99,,2013-05-01 14:00:00,
2013-05-01 08:00:00,45.0,-99.9,-100.00,East,90,2.0,-999.0,-999,-99.99,,,-99.99,,2013-05-01 15:00:00,
2013-05-01 10:00:00,54.0,-99.9,-100.00,NNW,338,3.0,-999.0,-999,-99.99,,,-99.99,,2013-05-01 17:00:00,
2013-05-01 11:00:00,56.0,-99.9,-100.00,NW,324,5.0,-999.0,-999,-99.99,,,-99.99,,2013-05-01 18:00:00,
2013-05-01 12:00:00,59.0,-99.9,-100.00,NNW,327,5.0,-999.0,-999,-99.99,,,-99.99,,2013-05-01 19:00:00,
2013-05-01 13:00:00,58.0,-99.9,-100.00,SSW,195,5.0,-999.0,-999,-99.99,,,-99.99,,2013-05-01 20:00:00,
2013-05-01 15:00:00,63.0,-99.9,-100.00,NNW,330,7.0,-999.0,-999,-99.99,,,-99.99,,2013-05-01 22:00:00,
2013-05-01 16:00:00,61.0,-99.9,-100.00,NW,326,8.0,-999.0,-999,-99.99,,,-99.99,,2013-05-01 23:00:00,
2013-05-01 17:00:00,61.0,-99.9,-100.00,NNW,328,7.0,-999.0,-999,-99.99,,,-99.99,,2013-05-02 00:00:00,
2013-05-01 18:00:00,61.0,-99.9,-100.00,NNW,329,7.0,-999.0,-999,-99.99,,,-99.99,,2013-05-02 01:00:00,
2013-05-01 19:00:00,60.0,-99.9,-100.00,NNW,330,7.0,-999.0,-999,-99.99,,,-99.99,,2013-05-02 02:00:00,
2013-05-01 20:00:00,59.0,-99.9,-100.00,NNW,330,6.0,-999.0,-999,-99.99,,,-99.99,,2013-05-02 03:00:00,
2013-05-01 21:00:00,56.0,-99.9,-100.00,NNW,331,5.0,-999.0,-999,-99.99,,,-99.99,,2013-05-02 04:00:00,
2013-05-01 22:00:00,55.0,-99.9,-100.00,NNW,337,3.0,-999.0,-999,-99.99,,,-99.99,,2013-05-02 05:00:00,
2013-05-01 23:00:00,54.0,-99.9,-100.00,North,353,2.0,-999.0,-999,-99.99,,,-99.99,,2013-05-02 06:00:00,